Time;durP1;ratioP1;P1;durP2;ratioP2;P2;SDS_P1;SDS_P2;PMS_P1;PMS_P2;Temp;Humidity;BMP_temperature;BMP_pressure;BME280_temperature;BME280_humidity;BME280_pressure;Samples;Min_cycle;Max_cycle;Signal;HPM_P1;HPM_P2
2021/07/27 00:01:07;;;;;;;;;;;25.30;54.20;;;;;;1527340;76;721;-69
2021/07/27 00:03:09;;;;;;;;;;;25.20;54.20;;;;;;1526558;76;771;-70
2021/07/27 00:05:11;;;;;;;;;;;25.20;54.10;;;;;;1520310;76;756;-70
2021/07/27 00:07:13;;;;;;;;;;;25.20;54.20;;;;;;1519481;76;1128;-68
2021/07/27 00:09:15;;;;;;;;;;;25.10;54.10;;;;;;1523731;76;1929;-69
2021/07/27 00:11:17;;;;;;;;;;;25.30;54.20;;;;;;1527814;76;787;-70
2021/07/27 00:13:18;;;;;;;;;;;25.30;54.40;;;;;;1526149;76;807;-68
2021/07/27 00:15:20;;;;;;;;;;;25.20;54.20;;;;;;1523577;76;821;-68
2021/07/27 00:17:24;;;;;;;;;;;25.20;54.30;;;;;;1511452;76;1143;-68
2021/07/27 00:19:26;;;;;;;;;;;25.30;54.20;;;;;;1517368;76;1581;-68
2021/07/27 00:21:28;;;;;;;;;;;25.20;54.00;;;;;;1525089;76;693;-68
2021/07/27 00:23:29;;;;;;;;;;;25.30;54.40;;;;;;1528032;76;664;-69
2021/07/27 00:25:31;;;;;;;;;;;25.30;54.40;;;;;;1520219;76;720;-70
2021/07/27 00:27:36;;;;;;;;;;;25.10;54.30;;;;;;1516047;76;1127;-65
2021/07/27 00:29:38;;;;;;;;;;;25.20;54.40;;;;;;1528021;76;1922;-68
2021/07/27 00:31:41;;;;;;;;;;;25.10;54.40;;;;;;1532147;76;670;-68
2021/07/27 00:33:43;;;;;;;;;;;25.20;54.50;;;;;;1522544;76;686;-68
2021/07/27 00:35:45;;;;;;;;;;;25.20;54.50;;;;;;1521719;76;769;-68
2021/07/27 00:37:48;;;;;;;;;;;25.20;54.30;;;;;;1534287;75;1130;-68
2021/07/27 00:39:50;;;;;;;;;;;25.20;54.20;;;;;;1530798;76;809;-68
2021/07/27 00:41:52;;;;;;;;;;;25.10;54.30;;;;;;1528156;76;682;-69
2021/07/27 00:43:53;;;;;;;;;;;25.20;54.50;;;;;;1521978;76;744;-67
2021/07/27 00:45:55;;;;;;;;;;;25.10;54.40;;;;;;1544874;76;1169;-69
2021/07/27 00:47:57;;;;;;;;;;;25.20;54.10;;;;;;1531727;76;698;-67
2021/07/27 00:49:59;;;;;;;;;;;25.20;54.10;;;;;;1530394;76;1944;-69
2021/07/27 00:52:01;;;;;;;;;;;25.30;54.10;;;;;;1526902;76;671;-70
2021/07/27 00:54:03;;;;;;;;;;;25.10;54.00;;;;;;1519382;76;680;-67
2021/07/27 00:56:05;;;;;;;;;;;25.10;53.80;;;;;;1518030;76;1143;-69
2021/07/27 00:58:07;;;;;;;;;;;25.20;54.00;;;;;;1511286;76;754;-68
2021/07/27 01:00:09;;;;;;;;;;;25.20;53.70;;;;;;1513850;76;733;-68
2021/07/27 01:02:11;;;;;;;;;;;25.20;53.70;;;;;;1525084;76;695;-67
2021/07/27 01:04:13;;;;;;;;;;;25.20;53.70;;;;;;1514023;76;744;-68
2021/07/27 01:06:15;;;;;;;;;;;25.20;53.50;;;;;;1518277;76;1158;-69
2021/07/27 01:08:17;;;;;;;;;;;25.20;53.60;;;;;;1511778;76;674;-68
2021/07/27 01:10:18;;;;;;;;;;;25.20;53.70;;;;;;1511594;76;1947;-69
2021/07/27 01:12:20;;;;;;;;;;;25.20;53.60;;;;;;1508385;76;843;-70
2021/07/27 01:14:22;;;;;;;;;;;25.20;53.60;;;;;;1527697;76;722;-66
2021/07/27 01:16:28;;;;;;;;;;;25.20;53.70;;;;;;1526631;76;1116;-68
2021/07/27 01:18:30;;;;;;;;;;;25.20;53.50;;;;;;1521725;76;1573;-68
2021/07/27 01:39:19;;;;;;;;;;;25.10;53.40;;;;;;1563165;74;1602;-75
2021/07/27 01:43:28;;;;;;;;;;;25.10;53.30;;;;;;1557108;75;865;-75
2021/07/27 01:45:19;;;;;;;;;;;25.10;53.40;;;;;;1539668;75;1217;-75
2021/07/27 01:47:21;;;;;;;;;;;25.20;53.40;;;;;;1537276;76;751;-75
2021/07/27 01:49:23;;;;;;;;;;;25.10;53.40;;;;;;1545206;76;1945;-75
2021/07/27 01:51:25;;;;;;;;;;;25.20;53.20;;;;;;1534915;75;743;-74
2021/07/27 01:53:34;;;;;;;;;;;25.10;53.20;;;;;;1532558;75;768;-74
2021/07/27 01:55:36;;;;;;;;;;;25.30;53.10;;;;;;1532109;76;1676;-74
2021/07/27 01:57:38;;;;;;;;;;;25.10;53.20;;;;;;1534262;76;734;-74
2021/07/27 01:59:40;;;;;;;;;;;25.20;53.20;;;;;;1532959;76;825;-74
2021/07/27 02:01:42;;;;;;;;;;;25.10;53.10;;;;;;1534194;76;824;-74
2021/07/27 02:03:44;;;;;;;;;;;25.10;53.10;;;;;;1527492;75;1112;-74
2021/07/27 02:05:46;;;;;;;;;;;25.10;53.30;;;;;;1539557;76;731;-74
2021/07/27 02:07:52;;;;;;;;;;;25.10;53.10;;;;;;1536101;75;729;-74
2021/07/27 02:10:01;;;;;;;;;;;25.10;53.10;;;;;;1535150;75;1927;-74
2021/07/27 02:12:01;;;;;;;;;;;25.20;53.30;;;;;;1529719;75;1663;-73
2021/07/27 02:14:02;;;;;;;;;;;25.20;53.40;;;;;;1529334;75;1625;-73
2021/07/27 02:16:04;;;;;;;;;;;25.10;53.10;;;;;;1532308;75;726;-73
2021/07/27 02:18:06;;;;;;;;;;;25.10;53.00;;;;;;1540569;76;741;-74
2021/07/27 02:20:08;;;;;;;;;;;25.20;52.80;;;;;;1534858;76;836;-74
2021/07/27 02:22:10;;;;;;;;;;;25.20;53.00;;;;;;1549106;75;722;-74
2021/07/27 02:24:12;;;;;;;;;;;25.20;52.80;;;;;;1532921;76;1170;-74
2021/07/27 02:26:14;;;;;;;;;;;25.10;53.10;;;;;;1537379;75;740;-74
2021/07/27 02:28:16;;;;;;;;;;;25.20;53.10;;;;;;1540363;75;804;-74
2021/07/27 02:30:18;;;;;;;;;;;25.10;53.10;;;;;;1532736;75;1944;-74
2021/07/27 02:32:20;;;;;;;;;;;25.20;52.80;;;;;;1540594;75;778;-73
2021/07/27 02:34:22;;;;;;;;;;;25.20;52.70;;;;;;1539319;75;1250;-74
2021/07/27 02:36:24;;;;;;;;;;;25.10;52.30;;;;;;1533362;76;773;-73
2021/07/27 02:38:26;;;;;;;;;;;25.20;52.30;;;;;;1539665;75;777;-74
2021/07/27 02:40:27;;;;;;;;;;;25.20;52.30;;;;;;1529662;75;758;-73
2021/07/27 02:42:29;;;;;;;;;;;25.20;52.40;;;;;;1533987;75;807;-74
2021/07/27 02:44:31;;;;;;;;;;;25.20;52.30;;;;;;1529031;75;1126;-73
2021/07/27 02:46:34;;;;;;;;;;;25.20;52.20;;;;;;1532674;75;777;-74
2021/07/27 02:48:35;;;;;;;;;;;25.20;52.20;;;;;;1530305;75;805;-74
2021/07/27 02:50:39;;;;;;;;;;;25.20;52.00;;;;;;1542040;75;1947;-74
2021/07/27 02:52:41;;;;;;;;;;;25.20;52.30;;;;;;1535863;76;712;-74
2021/07/27 02:54:43;;;;;;;;;;;25.20;52.50;;;;;;1544337;75;1126;-74
2021/07/27 02:56:45;;;;;;;;;;;25.20;52.40;;;;;;1541871;75;792;-74
2021/07/27 02:58:46;;;;;;;;;;;25.20;52.30;;;;;;1530912;76;811;-74
2021/07/27 03:00:48;;;;;;;;;;;25.20;52.40;;;;;;1541780;75;836;-74
2021/07/27 03:02:51;;;;;;;;;;;25.20;52.30;;;;;;1540778;76;821;-74
2021/07/27 03:04:53;;;;;;;;;;;25.20;52.30;;;;;;1540059;75;1203;-74
2021/07/27 03:06:55;;;;;;;;;;;25.10;52.10;;;;;;1539505;75;771;-74
2021/07/27 03:11:00;;;;;;;;;;;25.10;52.10;;;;;;1540082;76;1903;-74
2021/07/27 03:13:02;;;;;;;;;;;25.20;52.10;;;;;;1532621;75;793;-74
2021/07/27 03:15:05;;;;;;;;;;;25.20;52.10;;;;;;1535871;75;1142;-74
2021/07/27 03:17:06;;;;;;;;;;;25.20;52.10;;;;;;1534089;76;740;-74
2021/07/27 03:19:08;;;;;;;;;;;25.20;52.20;;;;;;1545430;75;739;-74
2021/07/27 03:21:13;;;;;;;;;;;25.10;52.00;;;;;;1534878;76;730;-74
2021/07/27 03:23:16;;;;;;;;;;;25.20;51.90;;;;;;1534211;75;682;-74
2021/07/27 03:25:19;;;;;;;;;;;25.10;51.70;;;;;;1553002;76;1150;-74
2021/07/27 03:27:21;;;;;;;;;;;25.10;51.80;;;;;;1523471;76;786;-74
2021/07/27 03:29:23;;;;;;;;;;;25.20;51.70;;;;;;1545593;75;732;-74
2021/07/27 03:31:24;;;;;;;;;;;25.20;51.80;;;;;;1538666;75;1944;-74
2021/07/27 03:33:26;;;;;;;;;;;25.10;51.80;;;;;;1551773;76;798;-74
2021/07/27 03:35:28;;;;;;;;;;;25.10;51.70;;;;;;1528281;75;786;-74
2021/07/27 03:37:32;;;;;;;;;;;25.20;52.10;;;;;;1530038;75;778;-74
2021/07/27 03:39:34;;;;;;;;;;;25.10;51.90;;;;;;1544291;76;850;-73
2021/07/27 03:41:36;;;;;;;;;;;25.10;51.70;;;;;;1540897;76;774;-74
2021/07/27 03:43:38;;;;;;;;;;;25.20;51.60;;;;;;1534254;75;1144;-73
2021/07/27 03:45:39;;;;;;;;;;;25.10;51.80;;;;;;1540336;76;773;-73
2021/07/27 03:47:41;;;;;;;;;;;25.10;52.00;;;;;;1539442;75;794;-73
2021/07/27 03:49:43;;;;;;;;;;;25.20;52.10;;;;;;1535666;76;731;-73
2021/07/27 03:51:45;;;;;;;;;;;25.20;51.90;;;;;;1529597;75;1936;-73
2021/07/27 03:53:47;;;;;;;;;;;25.10;51.90;;;;;;1542046;76;1143;-73
2021/07/27 03:55:49;;;;;;;;;;;25.10;52.00;;;;;;1543625;75;831;-73
2021/07/27 03:57:52;;;;;;;;;;;25.10;52.00;;;;;;1535392;75;800;-74
2021/07/27 03:59:53;;;;;;;;;;;25.10;52.00;;;;;;1538938;75;739;-74
2021/07/27 04:01:55;;;;;;;;;;;25.10;51.90;;;;;;1531214;76;775;-75
2021/07/27 04:03:57;;;;;;;;;;;25.20;51.80;;;;;;1542306;75;1122;-74
2021/07/27 04:05:59;;;;;;;;;;;25.10;51.60;;;;;;1551535;75;730;-74
2021/07/27 04:08:01;;;;;;;;;;;25.10;51.60;;;;;;1532032;76;795;-73
2021/07/27 04:10:06;;;;;;;;;;;25.10;51.70;;;;;;1535441;76;738;-73
2021/07/27 04:12:08;;;;;;;;;;;25.10;51.80;;;;;;1529239;76;1911;-73
2021/07/27 04:14:10;;;;;;;;;;;25.10;51.80;;;;;;1530576;76;1143;-73
2021/07/27 04:16:14;;;;;;;;;;;25.10;51.80;;;;;;1532045;75;791;-73
2021/07/27 04:18:18;;;;;;;;;;;25.10;51.70;;;;;;1535661;75;671;-73
2021/07/27 04:20:20;;;;;;;;;;;25.20;51.70;;;;;;1522224;76;773;-73
2021/07/27 04:22:22;;;;;;;;;;;25.20;51.70;;;;;;1522563;76;787;-73
2021/07/27 04:24:24;;;;;;;;;;;25.10;51.60;;;;;;1526664;76;1170;-75
2021/07/27 04:26:26;;;;;;;;;;;25.10;51.50;;;;;;1525972;76;761;-74
2021/07/27 04:28:28;;;;;;;;;;;25.20;51.60;;;;;;1535657;75;714;-74
2021/07/27 04:30:30;;;;;;;;;;;25.20;51.60;;;;;;1541849;75;1941;-73
2021/07/27 04:32:31;;;;;;;;;;;25.20;51.80;;;;;;1548205;75;771;-75
2021/07/27 04:34:33;;;;;;;;;;;25.10;51.80;;;;;;1532599;75;1148;-75
2021/07/27 04:36:35;;;;;;;;;;;25.20;52.00;;;;;;1537539;75;707;-74
2021/07/27 04:38:37;;;;;;;;;;;25.20;51.80;;;;;;1545660;75;793;-74
2021/07/27 04:40:39;;;;;;;;;;;25.10;51.90;;;;;;1530784;75;781;-74
2021/07/27 04:42:42;;;;;;;;;;;25.10;52.00;;;;;;1542342;75;783;-74
2021/07/27 04:44:44;;;;;;;;;;;25.10;51.80;;;;;;1526601;76;1151;-74
2021/07/27 04:46:47;;;;;;;;;;;25.20;51.70;;;;;;1531038;75;797;-74
2021/07/27 04:48:49;;;;;;;;;;;25.10;51.60;;;;;;1544117;75;766;-74
2021/07/27 04:50:51;;;;;;;;;;;25.10;51.50;;;;;;1532972;75;1941;-74
2021/07/27 04:52:59;;;;;;;;;;;25.10;51.50;;;;;;1535387;75;798;-74
2021/07/27 04:54:58;;;;;;;;;;;25.20;51.90;;;;;;1537658;75;1484;-74
2021/07/27 04:57:00;;;;;;;;;;;25.10;51.70;;;;;;1528892;76;812;-74
2021/07/27 04:59:02;;;;;;;;;;;25.20;51.90;;;;;;1530763;76;735;-74
2021/07/27 05:01:04;;;;;;;;;;;25.10;52.00;;;;;;1530934;76;726;-74
2021/07/27 05:03:06;;;;;;;;;;;25.10;51.80;;;;;;1533635;75;918;-74
2021/07/27 05:05:08;;;;;;;;;;;25.20;52.00;;;;;;1534073;76;1199;-74
2021/07/27 05:07:10;;;;;;;;;;;25.20;52.10;;;;;;1551405;75;777;-74
2021/07/27 05:09:12;;;;;;;;;;;25.10;52.00;;;;;;1537028;75;750;-75
2021/07/27 05:11:14;;;;;;;;;;;25.10;52.20;;;;;;1533333;75;1949;-75
2021/07/27 05:13:16;;;;;;;;;;;25.10;52.60;;;;;;1525235;75;734;-75
2021/07/27 05:15:17;;;;;;;;;;;25.20;52.60;;;;;;1543510;75;1114;-75
2021/07/27 05:17:19;;;;;;;;;;;25.20;52.60;;;;;;1542099;75;790;-75
2021/07/27 05:19:22;;;;;;;;;;;25.20;52.60;;;;;;1534559;75;761;-76
2021/07/27 05:21:23;;;;;;;;;;;25.20;53.40;;;;;;1543875;75;808;-74
2021/07/27 05:23:25;;;;;;;;;;;25.30;51.70;;;;;;1530490;75;729;-73
2021/07/27 05:25:27;;;;;;;;;;;25.30;50.70;;;;;;1532082;76;1175;-73
2021/07/27 05:27:31;;;;;;;;;;;25.40;50.10;;;;;;1531220;76;762;-73
2021/07/27 05:29:33;;;;;;;;;;;25.40;49.90;;;;;;1531872;75;700;-73
2021/07/27 05:31:34;;;;;;;;;;;25.30;49.80;;;;;;1545359;76;1927;-73
2021/07/27 05:33:36;;;;;;;;;;;25.40;49.80;;;;;;1541457;76;1149;-73
2021/07/27 05:35:38;;;;;;;;;;;25.30;49.70;;;;;;1541958;76;729;-73
2021/07/27 05:37:41;;;;;;;;;;;25.40;49.70;;;;;;1542946;75;899;-73
2021/07/27 05:39:42;;;;;;;;;;;25.40;49.60;;;;;;1538056;76;793;-73
2021/07/27 05:41:44;;;;;;;;;;;25.40;49.50;;;;;;1540665;76;777;-73
2021/07/27 05:43:46;;;;;;;;;;;25.40;49.40;;;;;;1534565;76;1148;-73
2021/07/27 05:45:48;;;;;;;;;;;25.50;49.20;;;;;;1526423;75;796;-73
2021/07/27 05:47:51;;;;;;;;;;;25.50;49.10;;;;;;1540663;75;831;-73
2021/07/27 05:49:52;;;;;;;;;;;25.60;49.10;;;;;;1542649;75;607;-74
2021/07/27 05:51:54;;;;;;;;;;;25.50;48.80;;;;;;1530428;75;1934;-74
2021/07/27 05:53:56;;;;;;;;;;;25.70;48.90;;;;;;1538241;75;1149;-74
2021/07/27 05:55:58;;;;;;;;;;;25.70;48.90;;;;;;1535256;76;771;-74
2021/07/27 05:58:00;;;;;;;;;;;25.80;48.80;;;;;;1528664;75;816;-74
2021/07/27 06:00:02;;;;;;;;;;;25.80;48.70;;;;;;1533497;76;784;-74
2021/07/27 06:02:04;;;;;;;;;;;25.80;48.70;;;;;;1527721;75;819;-73
2021/07/27 06:04:06;;;;;;;;;;;25.80;48.50;;;;;;1531028;75;1210;-73
2021/07/27 06:06:08;;;;;;;;;;;25.80;48.50;;;;;;1541777;75;712;-73
2021/07/27 06:08:09;;;;;;;;;;;25.80;48.50;;;;;;1532731;76;723;-74
2021/07/27 06:10:11;;;;;;;;;;;25.90;48.40;;;;;;1542142;76;675;-74
2021/07/27 06:12:15;;;;;;;;;;;25.80;48.20;;;;;;1543294;75;1939;-73
2021/07/27 06:14:17;;;;;;;;;;;25.90;48.20;;;;;;1534388;76;1494;-73
2021/07/27 06:16:19;;;;;;;;;;;25.80;48.10;;;;;;1534576;75;726;-74
2021/07/27 06:18:21;;;;;;;;;;;25.80;48.00;;;;;;1538751;75;798;-74
2021/07/27 06:20:22;;;;;;;;;;;25.90;47.90;;;;;;1533480;75;747;-74
2021/07/27 06:22:24;;;;;;;;;;;25.90;47.80;;;;;;1537072;75;723;-73
2021/07/27 06:24:26;;;;;;;;;;;25.90;47.80;;;;;;1523114;76;1144;-73
2021/07/27 06:26:28;;;;;;;;;;;25.90;47.80;;;;;;1536830;75;768;-73
2021/07/27 06:28:30;;;;;;;;;;;26.00;48.10;;;;;;1533963;76;780;-73
2021/07/27 06:30:32;;;;;;;;;;;26.10;48.10;;;;;;1525087;76;734;-73
2021/07/27 06:32:34;;;;;;;;;;;26.00;48.00;;;;;;1549308;75;1925;-73
2021/07/27 06:34:36;;;;;;;;;;;26.10;47.90;;;;;;1525101;76;1127;-73
2021/07/27 06:36:38;;;;;;;;;;;26.10;47.80;;;;;;1534585;75;790;-73
2021/07/27 06:38:39;;;;;;;;;;;26.20;47.80;;;;;;1544749;76;738;-73
2021/07/27 06:40:41;;;;;;;;;;;26.20;47.80;;;;;;1546025;75;823;-73
2021/07/27 06:42:43;;;;;;;;;;;26.10;47.80;;;;;;1544328;75;786;-73
2021/07/27 06:44:45;;;;;;;;;;;26.20;47.80;;;;;;1541963;75;1152;-73
2021/07/27 06:46:47;;;;;;;;;;;26.10;47.80;;;;;;1536308;75;806;-73
2021/07/27 06:48:49;;;;;;;;;;;26.20;47.80;;;;;;1546486;75;754;-73
2021/07/27 06:50:51;;;;;;;;;;;26.10;47.80;;;;;;1540872;76;909;-73
2021/07/27 06:52:53;;;;;;;;;;;26.10;47.90;;;;;;1539254;76;1939;-73
2021/07/27 06:54:55;;;;;;;;;;;26.30;47.80;;;;;;1543828;75;1145;-73
2021/07/27 06:56:57;;;;;;;;;;;26.30;47.80;;;;;;1537636;75;668;-73
2021/07/27 06:59:00;;;;;;;;;;;26.20;47.80;;;;;;1535205;76;770;-73
2021/07/27 07:01:03;;;;;;;;;;;26.20;47.80;;;;;;1532112;76;722;-73
2021/07/27 07:03:05;;;;;;;;;;;26.20;47.70;;;;;;1521345;76;744;-73
2021/07/27 07:05:07;;;;;;;;;;;26.20;47.80;;;;;;1544662;75;1157;-73
2021/07/27 07:07:08;;;;;;;;;;;26.30;47.80;;;;;;1538960;75;721;-73
2021/07/27 07:09:10;;;;;;;;;;;26.20;47.80;;;;;;1540699;75;745;-73
2021/07/27 07:11:12;;;;;;;;;;;26.20;47.80;;;;;;1527739;75;735;-73
2021/07/27 07:13:14;;;;;;;;;;;26.30;47.80;;;;;;1526082;75;1936;-73
2021/07/27 07:15:16;;;;;;;;;;;26.20;47.80;;;;;;1545505;75;1134;-73
2021/07/27 07:17:18;;;;;;;;;;;26.20;47.80;;;;;;1542258;75;790;-73
2021/07/27 07:19:20;;;;;;;;;;;26.20;47.70;;;;;;1541794;75;732;-73
2021/07/27 07:21:22;;;;;;;;;;;26.30;47.70;;;;;;1539517;75;745;-73
2021/07/27 07:23:23;;;;;;;;;;;26.30;47.70;;;;;;1544274;76;742;-73
2021/07/27 07:25:25;;;;;;;;;;;26.20;47.70;;;;;;1542820;75;1086;-73
2021/07/27 07:27:27;;;;;;;;;;;26.30;47.70;;;;;;1527436;76;749;-73
2021/07/27 07:29:29;;;;;;;;;;;26.30;47.70;;;;;;1539454;75;804;-73
2021/07/27 07:31:31;;;;;;;;;;;26.30;47.70;;;;;;1546934;76;1930;-73
2021/07/27 07:33:33;;;;;;;;;;;26.30;47.70;;;;;;1541244;75;1133;-74
2021/07/27 07:35:35;;;;;;;;;;;26.30;47.70;;;;;;1534167;75;783;-73
2021/07/27 07:37:36;;;;;;;;;;;26.30;47.70;;;;;;1547489;75;843;-73
2021/07/27 07:39:38;;;;;;;;;;;26.30;47.70;;;;;;1541383;75;788;-74
2021/07/27 07:41:40;;;;;;;;;;;26.30;47.70;;;;;;1530908;76;808;-73
2021/07/27 07:43:42;;;;;;;;;;;26.30;47.70;;;;;;1534463;76;1155;-73
2021/07/27 07:45:44;;;;;;;;;;;26.30;47.70;;;;;;1527849;76;783;-73
2021/07/27 07:47:46;;;;;;;;;;;26.30;47.70;;;;;;1545794;75;829;-73
2021/07/27 07:49:48;;;;;;;;;;;26.30;47.70;;;;;;1536423;76;717;-73
2021/07/27 07:51:50;;;;;;;;;;;26.30;47.80;;;;;;1528749;76;1950;-74
2021/07/27 07:53:52;;;;;;;;;;;26.30;47.70;;;;;;1534855;75;1150;-73
2021/07/27 07:55:55;;;;;;;;;;;26.40;47.80;;;;;;1533434;75;799;-74
2021/07/27 07:57:57;;;;;;;;;;;26.30;47.70;;;;;;1533243;75;787;-73
2021/07/27 08:00:00;;;;;;;;;;;26.30;47.80;;;;;;1539366;75;1111;-73
2021/07/27 08:02:02;;;;;;;;;;;26.30;47.80;;;;;;1526820;75;845;-73
2021/07/27 08:04:05;;;;;;;;;;;26.30;47.80;;;;;;1540594;76;1163;-73
2021/07/27 08:06:08;;;;;;;;;;;26.30;47.80;;;;;;1550467;76;796;-73
2021/07/27 08:08:10;;;;;;;;;;;26.30;47.80;;;;;;1530417;75;678;-73
2021/07/27 08:10:12;;;;;;;;;;;26.30;47.70;;;;;;1542180;76;805;-73
2021/07/27 08:12:14;;;;;;;;;;;26.40;47.70;;;;;;1536237;75;1934;-73
2021/07/27 08:14:16;;;;;;;;;;;26.30;47.70;;;;;;1540585;75;1120;-73
2021/07/27 08:16:18;;;;;;;;;;;26.30;47.80;;;;;;1531981;76;924;-73
2021/07/27 08:18:20;;;;;;;;;;;26.30;47.80;;;;;;1530348;75;827;-73
2021/07/27 08:20:22;;;;;;;;;;;26.40;47.90;;;;;;1531357;75;819;-73
2021/07/27 08:22:24;;;;;;;;;;;26.30;47.90;;;;;;1536005;76;762;-74
2021/07/27 08:24:26;;;;;;;;;;;26.30;48.00;;;;;;1528733;76;1124;-73
2021/07/27 08:26:28;;;;;;;;;;;26.30;48.00;;;;;;1523496;76;773;-73
2021/07/27 08:28:29;;;;;;;;;;;26.30;48.10;;;;;;1528060;75;699;-73
2021/07/27 08:30:31;;;;;;;;;;;26.30;48.00;;;;;;1524488;76;798;-73
2021/07/27 08:32:33;;;;;;;;;;;26.30;48.10;;;;;;1549528;76;1939;-73
2021/07/27 08:34:38;;;;;;;;;;;26.30;48.10;;;;;;1532345;75;1115;-73
2021/07/27 08:36:40;;;;;;;;;;;26.30;48.10;;;;;;1542678;75;776;-73
2021/07/27 08:38:42;;;;;;;;;;;26.30;48.20;;;;;;1541053;76;682;-73
2021/07/27 08:40:46;;;;;;;;;;;26.30;48.20;;;;;;1534281;75;803;-73
2021/07/27 08:42:47;;;;;;;;;;;26.30;48.30;;;;;;1545401;75;838;-74
2021/07/27 08:44:50;;;;;;;;;;;26.30;48.20;;;;;;1550619;76;1149;-73
2021/07/27 08:46:51;;;;;;;;;;;26.40;48.30;;;;;;1540525;76;842;-73
2021/07/27 08:48:53;;;;;;;;;;;26.30;48.30;;;;;;1540951;75;784;-73
2021/07/27 08:50:55;;;;;;;;;;;26.30;48.70;;;;;;1540010;75;866;-73
2021/07/27 08:52:59;;;;;;;;;;;26.30;49.40;;;;;;1534150;76;1955;-72
2021/07/27 08:55:01;;;;;;;;;;;26.30;48.90;;;;;;1539515;76;1139;-72
2021/07/27 08:57:03;;;;;;;;;;;26.30;49.00;;;;;;1535478;75;725;-71
2021/07/27 08:59:04;;;;;;;;;;;26.20;48.90;;;;;;1514292;77;830;-72
2021/07/27 09:01:06;;;;;;;;;;;26.30;49.00;;;;;;1538250;75;721;-72
2021/07/27 09:03:09;;;;;;;;;;;26.20;49.10;;;;;;1540689;75;778;-72
2021/07/27 09:05:11;;;;;;;;;;;26.30;49.40;;;;;;1536393;75;1116;-71
2021/07/27 09:07:13;;;;;;;;;;;26.30;49.40;;;;;;1529837;75;760;-71
2021/07/27 09:09:15;;;;;;;;;;;26.20;49.80;;;;;;1535694;75;748;-72
2021/07/27 09:11:17;;;;;;;;;;;26.20;49.50;;;;;;1539603;75;801;-72
2021/07/27 09:13:19;;;;;;;;;;;26.10;49.50;;;;;;1545422;75;1936;-71
2021/07/27 09:15:24;;;;;;;;;;;26.10;49.30;;;;;;1544203;75;1080;-72
2021/07/27 09:17:26;;;;;;;;;;;26.10;49.30;;;;;;1546040;75;771;-72
2021/07/27 09:19:30;;;;;;;;;;;26.10;49.40;;;;;;1542450;75;762;-72
2021/07/27 09:21:31;;;;;;;;;;;26.10;49.40;;;;;;1534974;76;2107;-72
2021/07/27 09:23:33;;;;;;;;;;;26.10;49.40;;;;;;1545063;75;1150;-72
2021/07/27 09:25:35;;;;;;;;;;;26.10;49.70;;;;;;1545389;75;846;-72
2021/07/27 09:27:37;;;;;;;;;;;26.10;49.40;;;;;;1545089;75;807;-72
2021/07/27 09:29:43;;;;;;;;;;;26.20;49.40;;;;;;1535722;75;773;-72
2021/07/27 09:31:46;;;;;;;;;;;26.10;49.40;;;;;;1540745;75;678;-72
2021/07/27 09:33:48;;;;;;;;;;;26.10;49.20;;;;;;1534940;75;1931;-72
2021/07/27 09:35:52;;;;;;;;;;;26.00;49.40;;;;;;1539876;76;808;-72
2021/07/27 09:38:04;;;;;;;;;;;26.00;49.20;;;;;;1537581;76;737;-72
2021/07/27 09:40:06;;;;;;;;;;;26.00;49.20;;;;;;1532090;75;757;-72
2021/07/27 09:42:09;;;;;;;;;;;25.90;48.50;;;;;;1541489;75;868;-72
2021/07/27 09:44:12;;;;;;;;;;;26.00;49.20;;;;;;1530903;76;1147;-72
2021/07/27 09:46:13;;;;;;;;;;;26.00;49.30;;;;;;1546749;75;937;-72
2021/07/27 09:48:16;;;;;;;;;;;26.00;49.30;;;;;;1546869;75;729;-72
2021/07/27 09:50:18;;;;;;;;;;;26.00;49.30;;;;;;1546497;75;752;-72
2021/07/27 09:52:20;;;;;;;;;;;26.00;49.30;;;;;;1536854;75;1933;-72
2021/07/27 09:54:23;;;;;;;;;;;26.00;49.20;;;;;;1524402;75;1146;-72
2021/07/27 09:56:25;;;;;;;;;;;26.00;49.30;;;;;;1537983;76;699;-72
2021/07/27 09:58:28;;;;;;;;;;;26.00;49.40;;;;;;1535996;75;807;-72
2021/07/27 10:00:30;;;;;;;;;;;26.00;49.40;;;;;;1532624;75;900;-72
2021/07/27 10:02:31;;;;;;;;;;;26.00;49.10;;;;;;1532149;75;719;-72
2021/07/27 10:04:36;;;;;;;;;;;26.00;49.20;;;;;;1527923;75;1193;-72
2021/07/27 10:06:38;;;;;;;;;;;26.00;49.30;;;;;;1531758;75;921;-72
2021/07/27 10:08:41;;;;;;;;;;;26.00;49.30;;;;;;1523834;75;830;-72
2021/07/27 10:10:46;;;;;;;;;;;25.90;48.90;;;;;;1532202;75;737;-72
2021/07/27 10:12:48;;;;;;;;;;;25.90;48.80;;;;;;1532306;75;1911;-72
2021/07/27 10:14:50;;;;;;;;;;;25.90;48.30;;;;;;1533059;75;1095;-72
2021/07/27 10:16:54;;;;;;;;;;;26.00;49.20;;;;;;1528974;75;680;-71
2021/07/27 10:18:56;;;;;;;;;;;25.90;48.50;;;;;;1530688;75;1305;-71
2021/07/27 10:20:59;;;;;;;;;;;26.00;49.00;;;;;;1526016;75;777;-72
2021/07/27 10:23:03;;;;;;;;;;;25.90;48.30;;;;;;1531760;75;1954;-71
2021/07/27 10:25:06;;;;;;;;;;;26.00;49.00;;;;;;1530827;75;1916;-72
2021/07/27 10:27:19;;;;;;;;;;;25.80;47.80;;;;;;1538897;75;1646;-72
2021/07/27 10:29:15;;;;;;;;;;;25.90;47.60;;;;;;1532418;76;1602;-73
2021/07/27 10:31:17;;;;;;;;;;;25.90;48.00;;;;;;1528965;75;1336;-72
2021/07/27 10:33:21;;;;;;;;;;;25.90;47.90;;;;;;1537288;75;1919;-72
2021/07/27 10:35:26;;;;;;;;;;;25.90;47.00;;;;;;1530185;75;1851;-72
2021/07/27 10:37:30;;;;;;;;;;;25.80;47.80;;;;;;1541358;75;775;-72
2021/07/27 10:39:32;;;;;;;;;;;25.80;47.50;;;;;;1524387;75;1884;-72
2021/07/27 10:41:37;;;;;;;;;;;25.80;47.80;;;;;;1536712;75;761;-72
2021/07/27 10:43:39;;;;;;;;;;;25.80;48.00;;;;;;1532884;75;1177;-72
2021/07/27 10:45:41;;;;;;;;;;;25.90;48.00;;;;;;1534911;75;732;-72
2021/07/27 10:47:44;;;;;;;;;;;25.90;47.80;;;;;;1532406;75;939;-73
2021/07/27 10:49:46;;;;;;;;;;;25.70;48.10;;;;;;1528120;76;1684;-72
2021/07/27 10:51:49;;;;;;;;;;;25.80;48.10;;;;;;1531166;75;827;-72
2021/07/27 10:53:52;;;;;;;;;;;25.80;48.00;;;;;;1535282;76;1931;-72
2021/07/27 10:55:54;;;;;;;;;;;25.80;48.00;;;;;;1529079;75;700;-72
2021/07/27 10:57:56;;;;;;;;;;;25.80;48.10;;;;;;1534078;75;704;-72
2021/07/27 10:59:58;;;;;;;;;;;25.70;48.00;;;;;;1535153;75;737;-72
2021/07/27 11:02:00;;;;;;;;;;;25.70;48.10;;;;;;1537296;75;813;-72
2021/07/27 11:04:11;;;;;;;;;;;25.60;48.40;;;;;;1541585;76;1174;-72
2021/07/27 11:06:13;;;;;;;;;;;25.70;48.20;;;;;;1543493;75;919;-73
2021/07/27 11:08:20;;;;;;;;;;;25.70;48.20;;;;;;1538468;75;681;-73
2021/07/27 11:10:23;;;;;;;;;;;25.70;48.30;;;;;;1534129;75;1843;-73
2021/07/27 11:12:32;;;;;;;;;;;25.80;48.30;;;;;;1542680;75;807;-73
2021/07/27 11:14:34;;;;;;;;;;;25.70;48.40;;;;;;1543602;75;1943;-73
2021/07/27 11:16:42;;;;;;;;;;;25.70;48.50;;;;;;1531089;75;698;-73
2021/07/27 11:18:44;;;;;;;;;;;25.60;48.50;;;;;;1536018;75;594;-73
2021/07/27 11:20:46;;;;;;;;;;;25.70;48.50;;;;;;1532027;75;786;-73
2021/07/27 11:22:49;;;;;;;;;;;25.60;48.50;;;;;;1526836;75;748;-73
2021/07/27 11:24:51;;;;;;;;;;;25.70;48.60;;;;;;1533649;75;1123;-73
2021/07/27 11:26:53;;;;;;;;;;;25.70;48.60;;;;;;1531006;75;669;-73
2021/07/27 11:28:55;;;;;;;;;;;25.70;48.60;;;;;;1528154;76;690;-73
2021/07/27 11:30:57;;;;;;;;;;;25.70;48.50;;;;;;1541706;76;739;-73
2021/07/27 11:33:01;;;;;;;;;;;25.60;48.50;;;;;;1533498;75;1936;-73
2021/07/27 11:35:03;;;;;;;;;;;25.70;48.40;;;;;;1525581;75;2008;-73
2021/07/27 11:37:04;;;;;;;;;;;25.60;48.60;;;;;;1535071;75;736;-73
2021/07/27 11:39:07;;;;;;;;;;;25.70;48.60;;;;;;1544623;75;747;-73
2021/07/27 11:41:09;;;;;;;;;;;25.60;48.50;;;;;;1540961;76;725;-73
2021/07/27 11:43:11;;;;;;;;;;;25.70;48.40;;;;;;1533073;76;790;-73
2021/07/27 11:45:14;;;;;;;;;;;25.50;48.70;;;;;;1532052;75;1124;-72
2021/07/27 11:47:16;;;;;;;;;;;25.70;48.70;;;;;;1541309;75;1593;-73
2021/07/27 11:49:18;;;;;;;;;;;25.60;48.70;;;;;;1528057;75;772;-73
2021/07/27 11:51:24;;;;;;;;;;;25.60;48.90;;;;;;1541585;75;1077;-73
2021/07/27 11:53:28;;;;;;;;;;;25.60;48.80;;;;;;1525915;75;1940;-73
2021/07/27 11:55:31;;;;;;;;;;;25.60;48.60;;;;;;1536728;76;736;-73
2021/07/27 11:57:34;;;;;;;;;;;25.70;48.70;;;;;;1525089;76;772;-75
2021/07/27 11:59:36;;;;;;;;;;;25.50;48.80;;;;;;1538568;75;691;-73
2021/07/27 12:01:38;;;;;;;;;;;25.60;48.90;;;;;;1531961;75;738;-73
2021/07/27 12:03:40;;;;;;;;;;;25.60;48.90;;;;;;1530890;76;1121;-73
2021/07/27 12:05:42;;;;;;;;;;;25.60;49.10;;;;;;1535581;75;804;-73
2021/07/27 12:07:44;;;;;;;;;;;25.60;49.10;;;;;;1540520;75;723;-73
2021/07/27 12:09:46;;;;;;;;;;;25.50;49.20;;;;;;1545911;76;788;-73
2021/07/27 12:11:48;;;;;;;;;;;25.60;49.20;;;;;;1537328;76;774;-73
2021/07/27 12:13:50;;;;;;;;;;;25.50;48.90;;;;;;1531635;75;1950;-73
2021/07/27 12:15:52;;;;;;;;;;;25.60;48.90;;;;;;1533229;75;817;-73
2021/07/27 12:17:54;;;;;;;;;;;25.70;48.90;;;;;;1528933;75;745;-73
2021/07/27 12:19:56;;;;;;;;;;;25.60;48.80;;;;;;1534069;75;744;-74
2021/07/27 12:21:59;;;;;;;;;;;25.60;49.00;;;;;;1521847;75;651;-73
2021/07/27 12:24:00;;;;;;;;;;;25.50;49.10;;;;;;1527039;75;1199;-73
2021/07/27 12:26:05;;;;;;;;;;;25.50;49.20;;;;;;1540545;75;621;-73
2021/07/27 12:28:07;;;;;;;;;;;25.50;49.40;;;;;;1523933;75;708;-73
2021/07/27 12:30:10;;;;;;;;;;;25.50;49.40;;;;;;1537463;75;803;-73
2021/07/27 12:32:11;;;;;;;;;;;25.50;49.20;;;;;;1542472;75;777;-73